sensor_id;sensor_type;location;lat;lon;timestamp;pressure;altitude;pressure_sealevel;temperature;humidity
78841;BME280;68379;47.190;27.558;2023-05-19T00:00:21;100230.54;;;12.94;77.36
78841;BME280;68379;47.190;27.558;2023-05-19T00:03:11;100211.11;;;12.92;77.38
78841;BME280;68379;47.190;27.558;2023-05-19T00:05:41;100204.69;;;12.89;77.13
78841;BME280;68379;47.190;27.558;2023-05-19T00:08:14;100200.31;;;12.88;77.18
78841;BME280;68379;47.190;27.558;2023-05-19T00:10:45;100197.98;;;12.84;77.86
78841;BME280;68379;47.190;27.558;2023-05-19T00:13:15;100195.95;;;12.81;77.63
78841;BME280;68379;47.190;27.558;2023-05-19T00:15:46;100190.69;;;12.80;77.34
78841;BME280;68379;47.190;27.558;2023-05-19T00:18:14;100191.91;;;12.80;77.25
78841;BME280;68379;47.190;27.558;2023-05-19T00:20:44;100191.56;;;12.80;76.91
78841;BME280;68379;47.190;27.558;2023-05-19T00:23:13;100186.76;;;12.81;77.13
78841;BME280;68379;47.190;27.558;2023-05-19T00:25:42;100194.34;;;12.82;76.63
78841;BME280;68379;47.190;27.558;2023-05-19T00:28:11;100198.30;;;12.85;77.43
78841;BME280;68379;47.190;27.558;2023-05-19T00:30:40;100202.27;;;12.83;77.34
78841;BME280;68379;47.190;27.558;2023-05-19T00:33:08;100211.84;;;12.83;77.25
78841;BME280;68379;47.190;27.558;2023-05-19T00:35:37;100225.27;;;12.84;76.91
78841;BME280;68379;47.190;27.558;2023-05-19T00:38:07;100230.73;;;12.86;76.97
78841;BME280;68379;47.190;27.558;2023-05-19T00:40:36;100240.90;;;12.88;76.86
78841;BME280;68379;47.190;27.558;2023-05-19T00:43:05;100241.20;;;12.89;77.52
78841;BME280;68379;47.190;27.558;2023-05-19T00:45:35;100233.73;;;12.90;77.18
78841;BME280;68379;47.190;27.558;2023-05-19T00:48:04;100226.48;;;12.89;77.16
78841;BME280;68379;47.190;27.558;2023-05-19T00:50:33;100228.48;;;12.88;77.45
78841;BME280;68379;47.190;27.558;2023-05-19T00:53:02;100232.39;;;12.88;77.34
78841;BME280;68379;47.190;27.558;2023-05-19T00:55:32;100225.33;;;12.88;78.24
78841;BME280;68379;47.190;27.558;2023-05-19T00:58:01;100234.38;;;12.87;78.14
78841;BME280;68379;47.190;27.558;2023-05-19T01:00:30;100229.40;;;12.87;77.21
78841;BME280;68379;47.190;27.558;2023-05-19T01:02:59;100228.29;;;12.89;77.50
78841;BME280;68379;47.190;27.558;2023-05-19T01:05:28;100226.92;;;12.88;77.80
78841;BME280;68379;47.190;27.558;2023-05-19T01:07:58;100222.71;;;12.86;77.40
78841;BME280;68379;47.190;27.558;2023-05-19T01:10:27;100225.95;;;12.85;77.38
78841;BME280;68379;47.190;27.558;2023-05-19T01:12:56;100227.36;;;12.85;77.26
78841;BME280;68379;47.190;27.558;2023-05-19T01:15:26;100227.19;;;12.85;77.22
78841;BME280;68379;47.190;27.558;2023-05-19T01:18:03;100229.67;;;12.85;77.84
78841;BME280;68379;47.190;27.558;2023-05-19T01:20:38;100233.09;;;12.84;77.99
78841;BME280;68379;47.190;27.558;2023-05-19T01:23:22;100223.05;;;12.82;77.83
78841;BME280;68379;47.190;27.558;2023-05-19T01:26:21;100229.84;;;12.81;78.03
78841;BME280;68379;47.190;27.558;2023-05-19T01:29:13;100226.54;;;12.79;77.91
78841;BME280;68379;47.190;27.558;2023-05-19T01:31:45;100226.08;;;12.78;77.82
78841;BME280;68379;47.190;27.558;2023-05-19T01:34:16;100229.83;;;12.77;77.64
78841;BME280;68379;47.190;27.558;2023-05-19T01:36:48;100233.76;;;12.76;77.77
78841;BME280;68379;47.190;27.558;2023-05-19T01:39:19;100239.11;;;12.76;78.08
78841;BME280;68379;47.190;27.558;2023-05-19T01:41:50;100237.22;;;12.74;78.43
78841;BME280;68379;47.190;27.558;2023-05-19T01:44:20;100242.29;;;12.72;78.34
78841;BME280;68379;47.190;27.558;2023-05-19T01:46:49;100243.58;;;12.71;78.79
78841;BME280;68379;47.190;27.558;2023-05-19T01:49:19;100256.44;;;12.68;78.29
78841;BME280;68379;47.190;27.558;2023-05-19T01:51:48;100258.60;;;12.67;77.89
78841;BME280;68379;47.190;27.558;2023-05-19T01:54:17;100260.14;;;12.69;77.76
78841;BME280;68379;47.190;27.558;2023-05-19T01:56:56;100260.29;;;12.70;78.50
78841;BME280;68379;47.190;27.558;2023-05-19T01:59:39;100256.16;;;12.71;78.16
78841;BME280;68379;47.190;27.558;2023-05-19T02:02:17;100256.73;;;12.70;78.33
78841;BME280;68379;47.190;27.558;2023-05-19T02:04:54;100258.21;;;12.68;78.47
78841;BME280;68379;47.190;27.558;2023-05-19T02:07:28;100249.99;;;12.66;78.79
78841;BME280;68379;47.190;27.558;2023-05-19T02:10:06;100246.23;;;12.62;79.08
78841;BME280;68379;47.190;27.558;2023-05-19T02:12:39;100247.80;;;12.59;79.28
78841;BME280;68379;47.190;27.558;2023-05-19T02:15:13;100253.16;;;12.58;79.24
78841;BME280;68379;47.190;27.558;2023-05-19T02:17:44;100250.70;;;12.57;79.17
78841;BME280;68379;47.190;27.558;2023-05-19T02:20:15;100251.17;;;12.58;78.72
78841;BME280;68379;47.190;27.558;2023-05-19T02:22:44;100253.02;;;12.57;79.61
78841;BME280;68379;47.190;27.558;2023-05-19T02:25:13;100250.26;;;12.55;79.19
78841;BME280;68379;47.190;27.558;2023-05-19T02:27:42;100257.17;;;12.55;78.80
78841;BME280;68379;47.190;27.558;2023-05-19T02:30:12;100260.05;;;12.54;79.29
78841;BME280;68379;47.190;27.558;2023-05-19T02:32:41;100267.63;;;12.51;80.17
78841;BME280;68379;47.190;27.558;2023-05-19T02:35:14;100272.51;;;12.48;79.93
78841;BME280;68379;47.190;27.558;2023-05-19T02:37:43;100275.21;;;12.47;79.64
78841;BME280;68379;47.190;27.558;2023-05-19T02:40:12;100275.89;;;12.48;79.39
78841;BME280;68379;47.190;27.558;2023-05-19T02:42:41;100277.25;;;12.49;79.87
78841;BME280;68379;47.190;27.558;2023-05-19T02:45:11;100270.68;;;12.49;79.80
78841;BME280;68379;47.190;27.558;2023-05-19T02:47:40;100274.90;;;12.50;79.58
78841;BME280;68379;47.190;27.558;2023-05-19T02:50:10;100280.02;;;12.51;79.32
78841;BME280;68379;47.190;27.558;2023-05-19T02:52:38;100288.58;;;12.50;79.38
78841;BME280;68379;47.190;27.558;2023-05-19T02:55:09;100291.30;;;12.48;79.28
78841;BME280;68379;47.190;27.558;2023-05-19T02:57:43;100300.61;;;12.50;78.96
78841;BME280;68379;47.190;27.558;2023-05-19T03:00:14;100300.74;;;12.51;79.00
78841;BME280;68379;47.190;27.558;2023-05-19T03:02:43;100308.13;;;12.53;79.40
78841;BME280;68379;47.190;27.558;2023-05-19T03:05:13;100314.01;;;12.52;79.30
78841;BME280;68379;47.190;27.558;2023-05-19T03:07:42;100319.89;;;12.51;78.74
78841;BME280;68379;47.190;27.558;2023-05-19T03:10:11;100321.78;;;12.53;79.41
78841;BME280;68379;47.190;27.558;2023-05-19T03:12:40;100316.34;;;12.51;79.43
78841;BME280;68379;47.190;27.558;2023-05-19T03:15:10;100316.46;;;12.52;79.61
78841;BME280;68379;47.190;27.558;2023-05-19T03:17:41;100317.42;;;12.55;79.21
78841;BME280;68379;47.190;27.558;2023-05-19T03:20:12;100318.52;;;12.59;79.13
78841;BME280;68379;47.190;27.558;2023-05-19T03:22:43;100320.70;;;12.61;79.04
78841;BME280;68379;47.190;27.558;2023-05-19T03:25:12;100322.77;;;12.63;79.01
78841;BME280;68379;47.190;27.558;2023-05-19T03:27:41;100330.05;;;12.63;79.31
78841;BME280;68379;47.190;27.558;2023-05-19T03:30:12;100325.73;;;12.60;79.38
78841;BME280;68379;47.190;27.558;2023-05-19T03:32:41;100331.08;;;12.60;79.25
78841;BME280;68379;47.190;27.558;2023-05-19T03:35:10;100329.46;;;12.60;79.20
78841;BME280;68379;47.190;27.558;2023-05-19T03:37:39;100325.04;;;12.64;78.99
78841;BME280;68379;47.190;27.558;2023-05-19T03:40:10;100322.59;;;12.67;78.91
78841;BME280;68379;47.190;27.558;2023-05-19T03:42:39;100323.55;;;12.70;79.02
78841;BME280;68379;47.190;27.558;2023-05-19T03:45:09;100322.92;;;12.68;79.18
78841;BME280;68379;47.190;27.558;2023-05-19T03:47:38;100326.87;;;12.67;79.51
78841;BME280;68379;47.190;27.558;2023-05-19T03:50:10;100334.68;;;12.67;79.29
78841;BME280;68379;47.190;27.558;2023-05-19T03:52:38;100332.33;;;12.68;79.32
78841;BME280;68379;47.190;27.558;2023-05-19T03:55:13;100333.32;;;12.70;79.50
78841;BME280;68379;47.190;27.558;2023-05-19T03:57:43;100336.09;;;12.71;79.47
78841;BME280;68379;47.190;27.558;2023-05-19T04:00:14;100340.44;;;12.73;79.38
78841;BME280;68379;47.190;27.558;2023-05-19T04:02:43;100344.86;;;12.74;79.38
78841;BME280;68379;47.190;27.558;2023-05-19T04:05:12;100347.63;;;12.75;79.07
78841;BME280;68379;47.190;27.558;2023-05-19T04:07:42;100354.80;;;12.82;78.75
78841;BME280;68379;47.190;27.558;2023-05-19T04:10:12;100363.23;;;12.84;79.01
78841;BME280;68379;47.190;27.558;2023-05-19T04:12:42;100366.60;;;12.84;78.86
78841;BME280;68379;47.190;27.558;2023-05-19T04:15:12;100365.02;;;12.89;78.58
78841;BME280;68379;47.190;27.558;2023-05-19T04:17:41;100364.70;;;12.96;78.64
78841;BME280;68379;47.190;27.558;2023-05-19T04:20:12;100353.30;;;12.98;78.80
78841;BME280;68379;47.190;27.558;2023-05-19T04:22:42;100355.59;;;13.02;78.66
78841;BME280;68379;47.190;27.558;2023-05-19T04:25:11;100355.82;;;13.05;78.51
78841;BME280;68379;47.190;27.558;2023-05-19T04:27:40;100358.05;;;13.07;78.34
78841;BME280;68379;47.190;27.558;2023-05-19T04:30:11;100356.91;;;13.04;78.62
78841;BME280;68379;47.190;27.558;2023-05-19T04:32:45;100356.90;;;13.09;78.38
78841;BME280;68379;47.190;27.558;2023-05-19T04:35:14;100354.90;;;13.10;78.23
78841;BME280;68379;47.190;27.558;2023-05-19T04:37:45;100348.89;;;13.14;78.23
78841;BME280;68379;47.190;27.558;2023-05-19T04:40:14;100356.59;;;13.30;77.87
78841;BME280;68379;47.190;27.558;2023-05-19T04:42:44;100358.42;;;13.41;77.54
78841;BME280;68379;47.190;27.558;2023-05-19T04:45:16;100361.35;;;13.47;77.13
78841;BME280;68379;47.190;27.558;2023-05-19T04:47:45;100358.14;;;13.52;77.09
78841;BME280;68379;47.190;27.558;2023-05-19T04:50:16;100354.27;;;13.51;77.10
78841;BME280;68379;47.190;27.558;2023-05-19T04:52:45;100358.30;;;13.52;76.93
78841;BME280;68379;47.190;27.558;2023-05-19T04:55:15;100357.02;;;13.49;76.90
78841;BME280;68379;47.190;27.558;2023-05-19T04:57:44;100364.87;;;13.44;76.95
78841;BME280;68379;47.190;27.558;2023-05-19T05:00:16;100384.65;;;13.42;77.09
78841;BME280;68379;47.190;27.558;2023-05-19T05:02:46;100374.80;;;13.44;77.12
78841;BME280;68379;47.190;27.558;2023-05-19T05:05:16;100368.38;;;13.49;77.00
78841;BME280;68379;47.190;27.558;2023-05-19T05:07:45;100366.52;;;13.55;76.83
78841;BME280;68379;47.190;27.558;2023-05-19T05:10:14;100367.03;;;13.68;76.56
78841;BME280;68379;47.190;27.558;2023-05-19T05:12:45;100362.67;;;13.74;76.35
78841;BME280;68379;47.190;27.558;2023-05-19T05:15:16;100360.96;;;13.77;75.94
78841;BME280;68379;47.190;27.558;2023-05-19T05:17:47;100351.77;;;13.80;75.90
78841;BME280;68379;47.190;27.558;2023-05-19T05:20:17;100359.02;;;13.88;75.68
78841;BME280;68379;47.190;27.558;2023-05-19T05:22:48;100372.23;;;13.87;75.49
78841;BME280;68379;47.190;27.558;2023-05-19T05:25:20;100387.59;;;13.81;75.73
78841;BME280;68379;47.190;27.558;2023-05-19T05:27:49;100386.28;;;13.71;75.82
78841;BME280;68379;47.190;27.558;2023-05-19T05:30:19;100374.44;;;13.69;75.85
78841;BME280;68379;47.190;27.558;2023-05-19T05:32:48;100373.90;;;13.69;76.00
78841;BME280;68379;47.190;27.558;2023-05-19T05:35:17;100375.14;;;13.81;75.73
78841;BME280;68379;47.190;27.558;2023-05-19T05:37:46;100374.90;;;14.03;75.19
78841;BME280;68379;47.190;27.558;2023-05-19T05:40:16;100379.44;;;14.28;74.28
78841;BME280;68379;47.190;27.558;2023-05-19T05:42:45;100383.65;;;14.48;73.74
78841;BME280;68379;47.190;27.558;2023-05-19T05:45:14;100389.02;;;14.63;73.07
78841;BME280;68379;47.190;27.558;2023-05-19T05:47:44;100387.50;;;14.73;72.58
78841;BME280;68379;47.190;27.558;2023-05-19T05:50:16;100389.06;;;14.73;72.47
78841;BME280;68379;47.190;27.558;2023-05-19T05:52:47;100384.66;;;14.73;72.18
78841;BME280;68379;47.190;27.558;2023-05-19T05:55:18;100394.14;;;14.64;72.40
78841;BME280;68379;47.190;27.558;2023-05-19T05:57:47;100398.15;;;14.69;72.74
78841;BME280;68379;47.190;27.558;2023-05-19T06:00:19;100403.39;;;14.82;72.14
78841;BME280;68379;47.190;27.558;2023-05-19T06:02:50;100402.27;;;14.99;71.59
78841;BME280;68379;47.190;27.558;2023-05-19T06:05:19;100401.52;;;15.10;71.08
78841;BME280;68379;47.190;27.558;2023-05-19T06:07:48;100406.11;;;15.18;71.01
78841;BME280;68379;47.190;27.558;2023-05-19T06:10:17;100406.05;;;15.34;70.65
78841;BME280;68379;47.190;27.558;2023-05-19T06:12:46;100400.43;;;15.57;70.26
78841;BME280;68379;47.190;27.558;2023-05-19T06:15:15;100402.98;;;15.69;69.75
78841;BME280;68379;47.190;27.558;2023-05-19T06:17:44;100407.71;;;15.71;69.23
78841;BME280;68379;47.190;27.558;2023-05-19T06:20:14;100403.11;;;15.71;68.72
78841;BME280;68379;47.190;27.558;2023-05-19T06:22:44;100411.98;;;15.86;68.99
78841;BME280;68379;47.190;27.558;2023-05-19T06:25:13;100404.73;;;15.98;68.73
78841;BME280;68379;47.190;27.558;2023-05-19T06:27:42;100401.23;;;16.07;69.10
78841;BME280;68379;47.190;27.558;2023-05-19T06:30:13;100414.02;;;16.25;67.68
78841;BME280;68379;47.190;27.558;2023-05-19T06:32:42;100410.52;;;16.43;67.05
78841;BME280;68379;47.190;27.558;2023-05-19T06:35:11;100409.67;;;16.39;66.95
78841;BME280;68379;47.190;27.558;2023-05-19T06:37:40;100413.58;;;16.30;67.07
78841;BME280;68379;47.190;27.558;2023-05-19T06:40:12;100413.34;;;16.21;67.19
78841;BME280;68379;47.190;27.558;2023-05-19T06:42:41;100411.32;;;16.22;66.97
78841;BME280;68379;47.190;27.558;2023-05-19T06:45:13;100413.16;;;16.37;67.32
78841;BME280;68379;47.190;27.558;2023-05-19T06:47:42;100416.79;;;16.46;66.67
78841;BME280;68379;47.190;27.558;2023-05-19T06:50:12;100412.00;;;16.35;66.39
78841;BME280;68379;47.190;27.558;2023-05-19T06:52:41;100415.95;;;16.35;66.42
78841;BME280;68379;47.190;27.558;2023-05-19T06:55:11;100414.46;;;16.30;66.05
78841;BME280;68379;47.190;27.558;2023-05-19T06:57:40;100410.11;;;16.34;66.62
78841;BME280;68379;47.190;27.558;2023-05-19T07:00:11;100412.70;;;16.46;66.40
78841;BME280;68379;47.190;27.558;2023-05-19T07:02:41;100405.01;;;16.46;65.76
78841;BME280;68379;47.190;27.558;2023-05-19T07:05:10;100406.43;;;16.66;66.33
78841;BME280;68379;47.190;27.558;2023-05-19T07:07:39;100406.33;;;16.93;65.63
78841;BME280;68379;47.190;27.558;2023-05-19T07:10:10;100410.43;;;17.03;65.41
78841;BME280;68379;47.190;27.558;2023-05-19T07:12:39;100413.50;;;17.09;64.46
78841;BME280;68379;47.190;27.558;2023-05-19T07:15:10;100415.05;;;17.19;64.87
78841;BME280;68379;47.190;27.558;2023-05-19T07:17:39;100423.38;;;17.38;63.59
78841;BME280;68379;47.190;27.558;2023-05-19T07:20:10;100421.52;;;17.39;63.28
78841;BME280;68379;47.190;27.558;2023-05-19T07:22:39;100413.83;;;17.34;63.13
78841;BME280;68379;47.190;27.558;2023-05-19T07:25:09;100418.14;;;17.30;63.42
78841;BME280;68379;47.190;27.558;2023-05-19T07:27:38;100425.60;;;17.53;62.67
78841;BME280;68379;47.190;27.558;2023-05-19T07:30:10;100425.73;;;17.77;62.52
78841;BME280;68379;47.190;27.558;2023-05-19T07:32:39;100420.58;;;17.71;61.89
78841;BME280;68379;47.190;27.558;2023-05-19T07:35:08;100415.91;;;17.59;62.26
78841;BME280;68379;47.190;27.558;2023-05-19T07:37:37;100409.74;;;17.61;62.77
78841;BME280;68379;47.190;27.558;2023-05-19T07:40:08;100407.20;;;17.64;62.99
78841;BME280;68379;47.190;27.558;2023-05-19T07:42:37;100398.48;;;17.76;61.99
78841;BME280;68379;47.190;27.558;2023-05-19T07:45:09;100396.92;;;17.93;61.79
78841;BME280;68379;47.190;27.558;2023-05-19T07:47:38;100399.56;;;18.11;61.62
78841;BME280;68379;47.190;27.558;2023-05-19T07:50:09;100408.05;;;18.27;60.78
78841;BME280;68379;47.190;27.558;2023-05-19T07:52:38;100403.48;;;18.32;61.07
78841;BME280;68379;47.190;27.558;2023-05-19T07:55:07;100408.89;;;18.34;60.34
78841;BME280;68379;47.190;27.558;2023-05-19T07:57:37;100408.04;;;18.21;60.41
78841;BME280;68379;47.190;27.558;2023-05-19T08:00:08;100411.10;;;18.18;60.86
78841;BME280;68379;47.190;27.558;2023-05-19T08:02:39;100408.14;;;18.20;60.46
78841;BME280;68379;47.190;27.558;2023-05-19T08:05:09;100403.14;;;18.25;59.94
78841;BME280;68379;47.190;27.558;2023-05-19T08:07:39;100403.05;;;18.33;60.42
78841;BME280;68379;47.190;27.558;2023-05-19T08:10:09;100400.50;;;18.39;59.98
78841;BME280;68379;47.190;27.558;2023-05-19T08:12:38;100401.18;;;18.54;60.39
78841;BME280;68379;47.190;27.558;2023-05-19T08:15:09;100397.88;;;18.84;59.29
78841;BME280;68379;47.190;27.558;2023-05-19T08:17:38;100405.23;;;19.06;59.46
78841;BME280;68379;47.190;27.558;2023-05-19T08:20:09;100408.02;;;19.21;58.48
78841;BME280;68379;47.190;27.558;2023-05-19T08:22:39;100400.27;;;19.29;58.52
78841;BME280;68379;47.190;27.558;2023-05-19T08:25:09;100403.13;;;19.32;58.23
78841;BME280;68379;47.190;27.558;2023-05-19T08:27:39;100408.91;;;19.39;57.51
78841;BME280;68379;47.190;27.558;2023-05-19T08:30:10;100407.67;;;19.31;57.44
78841;BME280;68379;47.190;27.558;2023-05-19T08:32:40;100401.14;;;19.29;57.50
78841;BME280;68379;47.190;27.558;2023-05-19T08:35:12;100400.90;;;19.14;56.99
78841;BME280;68379;47.190;27.558;2023-05-19T08:37:41;100403.38;;;19.23;57.43
78841;BME280;68379;47.190;27.558;2023-05-19T08:40:14;100396.64;;;19.35;57.33
78841;BME280;68379;47.190;27.558;2023-05-19T08:42:45;100395.55;;;19.46;56.53
78841;BME280;68379;47.190;27.558;2023-05-19T08:45:18;100392.67;;;19.48;56.45
78841;BME280;68379;47.190;27.558;2023-05-19T08:47:47;100393.48;;;19.44;56.69
78841;BME280;68379;47.190;27.558;2023-05-19T08:50:19;100392.11;;;19.46;57.29
78841;BME280;68379;47.190;27.558;2023-05-19T08:52:51;100391.91;;;19.58;56.56
78841;BME280;68379;47.190;27.558;2023-05-19T08:55:30;100396.23;;;19.68;56.64
78841;BME280;68379;47.190;27.558;2023-05-19T08:58:03;100398.41;;;19.99;55.75
78841;BME280;68379;47.190;27.558;2023-05-19T09:00:33;100389.87;;;20.10;54.86
78841;BME280;68379;47.190;27.558;2023-05-19T09:03:03;100395.17;;;20.37;55.30
78841;BME280;68379;47.190;27.558;2023-05-19T09:05:32;100393.81;;;20.61;54.97
78841;BME280;68379;47.190;27.558;2023-05-19T09:08:03;100385.70;;;20.96;53.94
78841;BME280;68379;47.190;27.558;2023-05-19T09:10:32;100385.06;;;21.07;53.02
78841;BME280;68379;47.190;27.558;2023-05-19T09:13:01;100380.27;;;21.21;52.67
78841;BME280;68379;47.190;27.558;2023-05-19T09:15:30;100373.92;;;21.29;52.66
78841;BME280;68379;47.190;27.558;2023-05-19T09:18:08;100377.84;;;21.56;52.66
78841;BME280;68379;47.190;27.558;2023-05-19T09:20:39;100384.11;;;21.79;51.77
78841;BME280;68379;47.190;27.558;2023-05-19T09:23:13;100379.17;;;21.92;51.41
78841;BME280;68379;47.190;27.558;2023-05-19T09:25:52;100382.31;;;22.02;51.59
78841;BME280;68379;47.190;27.558;2023-05-19T09:28:25;100382.35;;;21.97;50.57
78841;BME280;68379;47.190;27.558;2023-05-19T09:31:05;100386.45;;;21.93;50.65
78841;BME280;68379;47.190;27.558;2023-05-19T09:33:36;100388.67;;;21.90;51.23
78841;BME280;68379;47.190;27.558;2023-05-19T09:36:07;100384.51;;;22.11;51.72
78841;BME280;68379;47.190;27.558;2023-05-19T09:38:36;100382.92;;;22.45;50.34
78841;BME280;68379;47.190;27.558;2023-05-19T09:41:07;100379.95;;;22.68;49.82
78841;BME280;68379;47.190;27.558;2023-05-19T09:43:36;100380.41;;;22.96;49.00
78841;BME280;68379;47.190;27.558;2023-05-19T09:46:07;100370.45;;;23.20;48.89
78841;BME280;68379;47.190;27.558;2023-05-19T09:48:37;100367.58;;;23.37;49.44
78841;BME280;68379;47.190;27.558;2023-05-19T09:51:07;100361.43;;;23.48;48.84
78841;BME280;68379;47.190;27.558;2023-05-19T09:53:38;100359.67;;;23.41;47.18
78841;BME280;68379;47.190;27.558;2023-05-19T09:56:08;100362.43;;;23.19;46.73
78841;BME280;68379;47.190;27.558;2023-05-19T09:58:38;100363.89;;;22.98;46.22
78841;BME280;68379;47.190;27.558;2023-05-19T10:01:10;100362.51;;;22.95;47.19
78841;BME280;68379;47.190;27.558;2023-05-19T10:03:40;100356.33;;;23.10;47.22
78841;BME280;68379;47.190;27.558;2023-05-19T10:06:10;100359.98;;;23.34;46.69
78841;BME280;68379;47.190;27.558;2023-05-19T10:08:40;100359.89;;;23.41;45.88
78841;BME280;68379;47.190;27.558;2023-05-19T10:11:11;100353.99;;;23.40;45.26
78841;BME280;68379;47.190;27.558;2023-05-19T10:13:41;100349.95;;;23.43;45.58
78841;BME280;68379;47.190;27.558;2023-05-19T10:16:11;100352.02;;;23.45;45.34
78841;BME280;68379;47.190;27.558;2023-05-19T10:18:43;100355.61;;;23.55;45.21
78841;BME280;68379;47.190;27.558;2023-05-19T10:21:13;100350.23;;;23.55;45.04
78841;BME280;68379;47.190;27.558;2023-05-19T10:23:44;100351.91;;;23.42;44.56
78841;BME280;68379;47.190;27.558;2023-05-19T10:26:13;100353.55;;;23.31;45.56
78841;BME280;68379;47.190;27.558;2023-05-19T10:28:44;100351.23;;;23.30;45.45
78841;BME280;68379;47.190;27.558;2023-05-19T10:31:18;100348.49;;;23.22;45.41
78841;BME280;68379;47.190;27.558;2023-05-19T10:34:04;100346.77;;;23.25;45.63
78841;BME280;68379;47.190;27.558;2023-05-19T10:36:45;100342.48;;;23.27;45.21
78841;BME280;68379;47.190;27.558;2023-05-19T10:39:23;100337.85;;;23.26;45.55
78841;BME280;68379;47.190;27.558;2023-05-19T10:42:00;100335.61;;;23.23;45.63
78841;BME280;68379;47.190;27.558;2023-05-19T10:44:45;100324.84;;;23.21;46.18
78841;BME280;68379;47.190;27.558;2023-05-19T10:47:14;100324.74;;;23.35;46.22
78841;BME280;68379;47.190;27.558;2023-05-19T10:49:52;100324.39;;;23.47;45.75
78841;BME280;68379;47.190;27.558;2023-05-19T10:52:22;100327.73;;;23.63;45.89
78841;BME280;68379;47.190;27.558;2023-05-19T10:54:53;100322.36;;;23.68;45.70
78841;BME280;68379;47.190;27.558;2023-05-19T10:57:26;100320.34;;;23.71;45.55
78841;BME280;68379;47.190;27.558;2023-05-19T11:00:01;100315.13;;;23.64;45.71
78841;BME280;68379;47.190;27.558;2023-05-19T11:02:40;100316.90;;;23.52;45.88
78841;BME280;68379;47.190;27.558;2023-05-19T11:05:11;100317.70;;;23.45;46.18
78841;BME280;68379;47.190;27.558;2023-05-19T11:07:55;100313.92;;;23.56;46.46
78841;BME280;68379;47.190;27.558;2023-05-19T11:10:24;100315.44;;;23.86;46.48
78841;BME280;68379;47.190;27.558;2023-05-19T11:12:57;100317.77;;;24.07;45.51
78841;BME280;68379;47.190;27.558;2023-05-19T11:15:27;100326.34;;;24.10;45.20
78841;BME280;68379;47.190;27.558;2023-05-19T11:17:56;100329.38;;;24.06;45.33
78841;BME280;68379;47.190;27.558;2023-05-19T11:20:30;100332.59;;;23.98;45.34
78841;BME280;68379;47.190;27.558;2023-05-19T11:23:04;100327.88;;;23.97;45.25
78841;BME280;68379;47.190;27.558;2023-05-19T11:25:47;100329.98;;;24.10;45.31
78841;BME280;68379;47.190;27.558;2023-05-19T11:28:17;100328.92;;;24.22;44.60
78841;BME280;68379;47.190;27.558;2023-05-19T11:30:47;100322.60;;;24.40;44.74
78841;BME280;68379;47.190;27.558;2023-05-19T11:33:17;100320.92;;;24.63;44.07
78841;BME280;68379;47.190;27.558;2023-05-19T11:35:47;100314.77;;;24.75;43.64
78841;BME280;68379;47.190;27.558;2023-05-19T11:38:18;100309.39;;;24.80;43.54
78841;BME280;68379;47.190;27.558;2023-05-19T11:40:48;100308.70;;;24.84;43.23
78841;BME280;68379;47.190;27.558;2023-05-19T11:43:27;100299.96;;;25.04;43.52
78841;BME280;68379;47.190;27.558;2023-05-19T11:45:56;100295.48;;;25.25;42.45
78841;BME280;68379;47.190;27.558;2023-05-19T11:48:26;100295.00;;;25.28;42.64
78841;BME280;68379;47.190;27.558;2023-05-19T11:50:55;100296.84;;;25.38;42.47
78841;BME280;68379;47.190;27.558;2023-05-19T11:53:24;100297.41;;;25.38;41.97
78841;BME280;68379;47.190;27.558;2023-05-19T11:55:53;100287.85;;;25.35;41.83
78841;BME280;68379;47.190;27.558;2023-05-19T11:58:26;100285.77;;;25.34;42.03
78841;BME280;68379;47.190;27.558;2023-05-19T12:00:55;100279.80;;;25.30;42.21
78841;BME280;68379;47.190;27.558;2023-05-19T12:03:24;100274.08;;;25.30;42.02
78841;BME280;68379;47.190;27.558;2023-05-19T12:05:55;100271.83;;;25.39;42.25
78841;BME280;68379;47.190;27.558;2023-05-19T12:08:25;100270.13;;;25.49;41.80
78841;BME280;68379;47.190;27.558;2023-05-19T12:10:55;100263.79;;;25.56;41.96
78841;BME280;68379;47.190;27.558;2023-05-19T12:13:25;100256.48;;;25.56;41.32
78841;BME280;68379;47.190;27.558;2023-05-19T12:15:59;100254.13;;;25.55;41.72
78841;BME280;68379;47.190;27.558;2023-05-19T12:18:35;100255.38;;;25.80;41.88
78841;BME280;68379;47.190;27.558;2023-05-19T12:21:05;100244.27;;;26.01;41.34
78841;BME280;68379;47.190;27.558;2023-05-19T12:23:34;100244.70;;;26.17;40.89
78841;BME280;68379;47.190;27.558;2023-05-19T12:26:03;100244.48;;;26.27;40.49
78841;BME280;68379;47.190;27.558;2023-05-19T12:28:33;100242.59;;;26.28;39.92
78841;BME280;68379;47.190;27.558;2023-05-19T12:31:03;100246.40;;;26.44;40.15
78841;BME280;68379;47.190;27.558;2023-05-19T12:33:33;100242.14;;;26.54;39.75
78841;BME280;68379;47.190;27.558;2023-05-19T12:36:02;100244.02;;;26.57;39.64
78841;BME280;68379;47.190;27.558;2023-05-19T12:38:32;100240.23;;;26.95;39.10
78841;BME280;68379;47.190;27.558;2023-05-19T12:41:05;100236.11;;;27.33;38.60
78841;BME280;68379;47.190;27.558;2023-05-19T12:43:35;100230.20;;;27.88;38.32
78841;BME280;68379;47.190;27.558;2023-05-19T12:46:10;100223.91;;;28.44;37.16
78841;BME280;68379;47.190;27.558;2023-05-19T12:48:41;100214.23;;;28.81;36.88
78841;BME280;68379;47.190;27.558;2023-05-19T12:51:11;100213.10;;;29.19;35.85
78841;BME280;68379;47.190;27.558;2023-05-19T12:53:44;100208.29;;;29.33;35.43
78841;BME280;68379;47.190;27.558;2023-05-19T12:56:16;100206.52;;;29.30;34.86
78841;BME280;68379;47.190;27.558;2023-05-19T12:58:45;100220.21;;;29.30;34.12